sensor_id;sensor_type;location;lat;lon;timestamp;pressure;altitude;pressure_sealevel;temperature;humidity
75008;BME280;63554;48.940;12.050;2023-02-18T00:03:05;98089.47;;;9.41;82.48
75008;BME280;63554;48.940;12.050;2023-02-18T00:07:09;98096.56;;;9.42;82.38
75008;BME280;63554;48.940;12.050;2023-02-18T00:11:13;98097.56;;;9.41;82.36
75008;BME280;63554;48.940;12.050;2023-02-18T00:15:16;98096.88;;;9.54;81.79
75008;BME280;63554;48.940;12.050;2023-02-18T00:19:19;98086.66;;;9.49;82.03
75008;BME280;63554;48.940;12.050;2023-02-18T00:23:23;98080.53;;;9.40;82.38
75008;BME280;63554;48.940;12.050;2023-02-18T00:27:26;98080.69;;;9.32;82.57
75008;BME280;63554;48.940;12.050;2023-02-18T00:31:30;98085.44;;;9.30;82.82
75008;BME280;63554;48.940;12.050;2023-02-18T00:35:33;98091.31;;;9.34;82.61
75008;BME280;63554;48.940;12.050;2023-02-18T00:39:37;98083.84;;;9.36;82.52
75008;BME280;63554;48.940;12.050;2023-02-18T00:43:40;98076.31;;;9.31;82.66
75008;BME280;63554;48.940;12.050;2023-02-18T00:47:43;98074.63;;;9.30;82.35
75008;BME280;63554;48.940;12.050;2023-02-18T00:51:45;98086.84;;;9.47;81.67
75008;BME280;63554;48.940;12.050;2023-02-18T00:55:49;98078.94;;;9.46;81.46
75008;BME280;63554;48.940;12.050;2023-02-18T00:59:52;98087.69;;;9.48;81.62
75008;BME280;63554;48.940;12.050;2023-02-18T01:03:55;98087.03;;;9.46;81.21
75008;BME280;63554;48.940;12.050;2023-02-18T01:07:57;98096.44;;;9.50;81.02
75008;BME280;63554;48.940;12.050;2023-02-18T01:12:02;98086.84;;;9.47;81.21
75008;BME280;63554;48.940;12.050;2023-02-18T01:16:05;98096.63;;;9.48;81.55
75008;BME280;63554;48.940;12.050;2023-02-18T01:20:10;98089.06;;;9.37;82.32
75008;BME280;63554;48.940;12.050;2023-02-18T01:24:13;98089.16;;;9.29;83.10
75008;BME280;63554;48.940;12.050;2023-02-18T01:28:18;98081.00;;;9.22;83.75
75008;BME280;63554;48.940;12.050;2023-02-18T01:32:21;98084.75;;;9.21;84.11
75008;BME280;63554;48.940;12.050;2023-02-18T01:36:24;98085.41;;;9.23;84.21
75008;BME280;63554;48.940;12.050;2023-02-18T01:40:28;98088.84;;;9.17;84.59
75008;BME280;63554;48.940;12.050;2023-02-18T01:44:33;98083.19;;;9.12;85.30
75008;BME280;63554;48.940;12.050;2023-02-18T01:48:38;98083.38;;;9.10;85.52
75008;BME280;63554;48.940;12.050;2023-02-18T01:52:41;98072.94;;;9.07;85.90
75008;BME280;63554;48.940;12.050;2023-02-18T01:56:47;98081.28;;;9.06;85.99
75008;BME280;63554;48.940;12.050;2023-02-18T02:00:52;98086.22;;;9.02;86.44
75008;BME280;63554;48.940;12.050;2023-02-18T02:04:55;98073.72;;;9.01;86.28
75008;BME280;63554;48.940;12.050;2023-02-18T02:09:01;98064.34;;;8.97;86.66
75008;BME280;63554;48.940;12.050;2023-02-18T02:13:10;98063.69;;;8.95;86.65
75008;BME280;63554;48.940;12.050;2023-02-18T02:17:24;98056.19;;;8.90;86.78
75008;BME280;63554;48.940;12.050;2023-02-18T02:30:46;98050.16;;;8.88;86.49
75008;BME280;63554;48.940;12.050;2023-02-18T02:34:57;98045.22;;;8.92;85.92
75008;BME280;63554;48.940;12.050;2023-02-18T02:39:11;98059.81;;;8.98;85.86
75008;BME280;63554;48.940;12.050;2023-02-18T02:43:20;98045.06;;;9.00;85.51
75008;BME280;63554;48.940;12.050;2023-02-18T02:47:32;98035.50;;;8.98;85.77
75008;BME280;63554;48.940;12.050;2023-02-18T02:51:45;98034.09;;;9.02;85.46
75008;BME280;63554;48.940;12.050;2023-02-18T02:55:49;98008.09;;;9.01;85.03
75008;BME280;63554;48.940;12.050;2023-02-18T02:59:57;98010.22;;;9.05;84.68
75008;BME280;63554;48.940;12.050;2023-02-18T03:04:12;98007.72;;;9.04;84.81
75008;BME280;63554;48.940;12.050;2023-02-18T03:08:31;98019.81;;;9.08;84.48
75008;BME280;63554;48.940;12.050;2023-02-18T03:12:47;98020.63;;;9.08;84.12
75008;BME280;63554;48.940;12.050;2023-02-18T03:16:58;98024.81;;;9.11;83.79
75008;BME280;63554;48.940;12.050;2023-02-18T03:21:05;98017.63;;;9.18;83.17
75008;BME280;63554;48.940;12.050;2023-02-18T03:25:11;98014.53;;;9.21;83.01
75008;BME280;63554;48.940;12.050;2023-02-18T03:29:16;98014.53;;;9.21;82.83
75008;BME280;63554;48.940;12.050;2023-02-18T03:33:24;98004.94;;;9.19;82.60
75008;BME280;63554;48.940;12.050;2023-02-18T03:37:28;98013.75;;;9.27;82.30
75008;BME280;63554;48.940;12.050;2023-02-18T03:41:34;98003.13;;;9.26;81.87
75008;BME280;63554;48.940;12.050;2023-02-18T03:45:38;98010.66;;;9.30;81.64
75008;BME280;63554;48.940;12.050;2023-02-18T03:49:40;98014.84;;;9.33;81.55
75008;BME280;63554;48.940;12.050;2023-02-18T03:53:43;98007.94;;;9.30;81.30
75008;BME280;63554;48.940;12.050;2023-02-18T03:57:47;98006.66;;;9.26;81.51
75008;BME280;63554;48.940;12.050;2023-02-18T04:01:49;98018.56;;;9.32;81.18
75008;BME280;63554;48.940;12.050;2023-02-18T04:05:52;98015.03;;;9.32;81.26
75008;BME280;63554;48.940;12.050;2023-02-18T04:09:55;98013.75;;;9.27;81.23
75008;BME280;63554;48.940;12.050;2023-02-18T04:13:59;98024.34;;;9.29;81.26
75008;BME280;63554;48.940;12.050;2023-02-18T04:18:02;98023.69;;;9.27;81.06
75008;BME280;63554;48.940;12.050;2023-02-18T04:22:04;98030.78;;;9.28;81.07
75008;BME280;63554;48.940;12.050;2023-02-18T04:26:07;98030.34;;;9.24;81.08
75008;BME280;63554;48.940;12.050;2023-02-18T04:30:12;98031.81;;;9.27;80.97
75008;BME280;63554;48.940;12.050;2023-02-18T04:34:18;98026.22;;;9.28;80.67
75008;BME280;63554;48.940;12.050;2023-02-18T04:38:21;98026.22;;;9.28;81.38
75008;BME280;63554;48.940;12.050;2023-02-18T04:42:23;98023.00;;;9.18;82.08
75008;BME280;63554;48.940;12.050;2023-02-18T04:46:27;98040.19;;;9.10;82.92
75008;BME280;63554;48.940;12.050;2023-02-18T04:50:30;98036.38;;;9.05;83.68
75008;BME280;63554;48.940;12.050;2023-02-18T04:54:33;98041.66;;;8.91;84.64
75008;BME280;63554;48.940;12.050;2023-02-18T04:58:36;98035.72;;;8.81;85.99
75008;BME280;63554;48.940;12.050;2023-02-18T05:02:40;98038.03;;;8.63;87.20
75008;BME280;63554;48.940;12.050;2023-02-18T05:06:43;98029.38;;;8.52;88.36
75008;BME280;63554;48.940;12.050;2023-02-18T05:10:46;98024.75;;;8.46;88.78
75008;BME280;63554;48.940;12.050;2023-02-18T05:14:48;98018.94;;;8.43;89.25
75008;BME280;63554;48.940;12.050;2023-02-18T05:18:52;98028.56;;;8.37;89.78
75008;BME280;63554;48.940;12.050;2023-02-18T05:22:56;98024.78;;;8.31;90.54
75008;BME280;63554;48.940;12.050;2023-02-18T05:26:59;98019.09;;;8.26;91.05
75008;BME280;63554;48.940;12.050;2023-02-18T05:31:01;98014.28;;;8.22;90.83
75008;BME280;63554;48.940;12.050;2023-02-18T05:35:07;98017.44;;;8.25;90.51
75008;BME280;63554;48.940;12.050;2023-02-18T05:39:09;98020.78;;;8.27;89.69
75008;BME280;63554;48.940;12.050;2023-02-18T05:43:12;98014.16;;;8.30;89.06
75008;BME280;63554;48.940;12.050;2023-02-18T05:47:15;98020.66;;;8.36;89.32
75008;BME280;63554;48.940;12.050;2023-02-18T05:51:19;98022.31;;;8.37;88.37
75008;BME280;63554;48.940;12.050;2023-02-18T05:55:22;98026.81;;;8.44;87.97
75008;BME280;63554;48.940;12.050;2023-02-18T05:59:25;98032.47;;;8.49;86.87
75008;BME280;63554;48.940;12.050;2023-02-18T06:03:28;98023.03;;;8.60;85.95
75008;BME280;63554;48.940;12.050;2023-02-18T06:07:32;98020.16;;;8.62;86.14
75008;BME280;63554;48.940;12.050;2023-02-18T06:11:35;98017.75;;;8.67;85.51
75008;BME280;63554;48.940;12.050;2023-02-18T06:15:38;98023.59;;;8.70;85.52
75008;BME280;63554;48.940;12.050;2023-02-18T06:19:41;98011.31;;;8.68;85.45
75008;BME280;63554;48.940;12.050;2023-02-18T06:23:45;98023.97;;;8.67;85.61
75008;BME280;63554;48.940;12.050;2023-02-18T06:27:47;98025.38;;;8.63;85.84
75008;BME280;63554;48.940;12.050;2023-02-18T06:31:50;98037.19;;;8.62;86.36
75008;BME280;63554;48.940;12.050;2023-02-18T06:35:54;98033.84;;;8.60;86.32
75008;BME280;63554;48.940;12.050;2023-02-18T06:39:59;98040.47;;;8.58;87.16
75008;BME280;63554;48.940;12.050;2023-02-18T06:44:02;98031.66;;;8.49;87.73
75008;BME280;63554;48.940;12.050;2023-02-18T06:48:04;98016.88;;;8.45;88.24
75008;BME280;63554;48.940;12.050;2023-02-18T06:52:07;98027.44;;;8.46;88.76
75008;BME280;63554;48.940;12.050;2023-02-18T06:56:11;98025.66;;;8.39;88.94
75008;BME280;63554;48.940;12.050;2023-02-18T07:00:14;98026.91;;;8.36;89.13
75008;BME280;63554;48.940;12.050;2023-02-18T07:04:17;98018.97;;;8.35;88.65
75008;BME280;63554;48.940;12.050;2023-02-18T07:08:20;98023.63;;;8.41;88.31
75008;BME280;63554;48.940;12.050;2023-02-18T07:12:24;98009.50;;;8.54;86.94
75008;BME280;63554;48.940;12.050;2023-02-18T07:16:27;98013.53;;;8.64;86.11
75008;BME280;63554;48.940;12.050;2023-02-18T07:20:29;98014.88;;;8.90;84.64
75008;BME280;63554;48.940;12.050;2023-02-18T07:24:32;98005.81;;;8.98;84.45
75008;BME280;63554;48.940;12.050;2023-02-18T07:28:36;98004.94;;;8.97;84.91
75008;BME280;63554;48.940;12.050;2023-02-18T07:32:39;97996.63;;;8.92;84.56
75008;BME280;63554;48.940;12.050;2023-02-18T07:36:42;97989.03;;;9.02;83.36
75008;BME280;63554;48.940;12.050;2023-02-18T07:40:45;97976.03;;;9.13;82.34
75008;BME280;63554;48.940;12.050;2023-02-18T07:44:49;97983.59;;;9.24;81.95
75008;BME280;63554;48.940;12.050;2023-02-18T07:48:52;97979.66;;;9.26;81.20
75008;BME280;63554;48.940;12.050;2023-02-18T07:52:54;97976.78;;;9.28;81.03
75008;BME280;63554;48.940;12.050;2023-02-18T07:56:57;97959.13;;;9.32;80.59
75008;BME280;63554;48.940;12.050;2023-02-18T08:01:03;97955.44;;;9.40;80.66
75008;BME280;63554;48.940;12.050;2023-02-18T08:05:06;97958.63;;;9.50;79.96
75008;BME280;63554;48.940;12.050;2023-02-18T08:09:09;97969.06;;;9.53;79.50
75008;BME280;63554;48.940;12.050;2023-02-18T08:13:12;97970.94;;;9.53;79.31
75008;BME280;63554;48.940;12.050;2023-02-18T08:17:16;97964.13;;;9.63;78.68
75008;BME280;63554;48.940;12.050;2023-02-18T08:21:20;97972.47;;;9.68;78.28
75008;BME280;63554;48.940;12.050;2023-02-18T08:25:24;97962.75;;;9.74;77.61
75008;BME280;63554;48.940;12.050;2023-02-18T08:29:30;97973.16;;;9.84;77.29
75008;BME280;63554;48.940;12.050;2023-02-18T08:33:34;97967.09;;;10.17;76.39
75008;BME280;63554;48.940;12.050;2023-02-18T08:37:36;97981.44;;;10.17;75.61
75008;BME280;63554;48.940;12.050;2023-02-18T08:41:55;97955.44;;;10.16;75.59
75008;BME280;63554;48.940;12.050;2023-02-18T08:45:58;97950.50;;;10.26;75.52
75008;BME280;63554;48.940;12.050;2023-02-18T08:50:02;97950.97;;;10.37;74.62
75008;BME280;63554;48.940;12.050;2023-02-18T08:54:05;97951.00;;;10.43;74.54
75008;BME280;63554;48.940;12.050;2023-02-18T08:58:08;97947.66;;;10.48;74.95
75008;BME280;63554;48.940;12.050;2023-02-18T09:02:12;97931.84;;;10.52;74.64
75008;BME280;63554;48.940;12.050;2023-02-18T09:06:16;97932.50;;;10.54;73.77
75008;BME280;63554;48.940;12.050;2023-02-18T09:10:19;97944.16;;;10.61;73.94
75008;BME280;63554;48.940;12.050;2023-02-18T09:14:22;97917.09;;;10.61;73.79
75008;BME280;63554;48.940;12.050;2023-02-18T09:18:24;97917.94;;;10.55;73.93
75008;BME280;63554;48.940;12.050;2023-02-18T09:22:29;97895.84;;;10.58;74.23
75008;BME280;63554;48.940;12.050;2023-02-18T09:26:33;97902.94;;;10.65;73.78
75008;BME280;63554;48.940;12.050;2023-02-18T09:30:35;97911.06;;;10.85;73.36
75008;BME280;63554;48.940;12.050;2023-02-18T09:34:38;97926.09;;;10.95;73.01
75008;BME280;63554;48.940;12.050;2023-02-18T09:38:42;97889.22;;;10.87;72.55
75008;BME280;63554;48.940;12.050;2023-02-18T09:42:45;97892.56;;;10.96;72.82
75008;BME280;63554;48.940;12.050;2023-02-18T09:46:50;97895.03;;;10.91;73.32
75008;BME280;63554;48.940;12.050;2023-02-18T09:50:54;97885.88;;;10.92;73.50
75008;BME280;63554;48.940;12.050;2023-02-18T09:54:58;97890.47;;;10.91;72.70
75008;BME280;63554;48.940;12.050;2023-02-18T09:59:03;97876.72;;;11.06;72.77
75008;BME280;63554;48.940;12.050;2023-02-18T10:03:12;97874.19;;;11.18;71.57
75008;BME280;63554;48.940;12.050;2023-02-18T10:07:20;97850.44;;;11.20;72.64
75008;BME280;63554;48.940;12.050;2023-02-18T10:11:30;97857.13;;;11.17;72.06
75008;BME280;63554;48.940;12.050;2023-02-18T10:15:34;97862.09;;;11.20;72.26
75008;BME280;63554;48.940;12.050;2023-02-18T10:19:38;97869.81;;;11.17;71.36
75008;BME280;63554;48.940;12.050;2023-02-18T10:23:55;97875.44;;;11.15;71.21
75008;BME280;63554;48.940;12.050;2023-02-18T10:28:00;97870.88;;;11.16;71.18
75008;BME280;63554;48.940;12.050;2023-02-18T10:32:07;97872.50;;;11.17;71.71
75008;BME280;63554;48.940;12.050;2023-02-18T10:36:23;97851.28;;;11.14;71.35
75008;BME280;63554;48.940;12.050;2023-02-18T10:40:29;97861.47;;;11.18;71.34
75008;BME280;63554;48.940;12.050;2023-02-18T10:44:46;97846.47;;;11.22;71.23
75008;BME280;63554;48.940;12.050;2023-02-18T10:49:03;97854.16;;;11.32;70.84
75008;BME280;63554;48.940;12.050;2023-02-18T10:53:10;97862.69;;;11.36;70.94
75008;BME280;63554;48.940;12.050;2023-02-18T10:57:16;97828.91;;;11.38;70.97
75008;BME280;63554;48.940;12.050;2023-02-18T11:01:21;97824.53;;;11.44;71.08
75008;BME280;63554;48.940;12.050;2023-02-18T11:05:26;97837.41;;;11.48;69.96
75008;BME280;63554;48.940;12.050;2023-02-18T11:09:34;97835.13;;;11.52;69.68
75008;BME280;63554;48.940;12.050;2023-02-18T11:13:40;97813.88;;;11.49;69.93
75008;BME280;63554;48.940;12.050;2023-02-18T11:17:46;97809.09;;;11.44;69.94
75008;BME280;63554;48.940;12.050;2023-02-18T11:21:49;97805.53;;;11.51;70.22
75008;BME280;63554;48.940;12.050;2023-02-18T11:25:55;97774.47;;;11.46;70.24
75008;BME280;63554;48.940;12.050;2023-02-18T11:30:02;97776.56;;;11.44;69.77
75008;BME280;63554;48.940;12.050;2023-02-18T11:34:14;97781.34;;;11.49;70.07
75008;BME280;63554;48.940;12.050;2023-02-18T11:38:24;97768.41;;;11.51;69.94
75008;BME280;63554;48.940;12.050;2023-02-18T11:42:28;97761.31;;;11.57;69.81
75008;BME280;63554;48.940;12.050;2023-02-18T11:46:31;97749.41;;;11.58;69.47
75008;BME280;63554;48.940;12.050;2023-02-18T11:50:35;97746.69;;;11.64;69.68
75008;BME280;63554;48.940;12.050;2023-02-18T11:54:38;97735.34;;;11.74;69.27
75008;BME280;63554;48.940;12.050;2023-02-18T11:58:45;97745.13;;;11.82;68.68
75008;BME280;63554;48.940;12.050;2023-02-18T12:02:49;97731.31;;;11.83;68.73
75008;BME280;63554;48.940;12.050;2023-02-18T12:06:58;97721.03;;;11.99;68.42
75008;BME280;63554;48.940;12.050;2023-02-18T12:11:11;97728.06;;;12.06;67.34
75008;BME280;63554;48.940;12.050;2023-02-18T12:15:23;97720.22;;;12.23;67.98
75008;BME280;63554;48.940;12.050;2023-02-18T12:19:43;97723.19;;;12.65;66.07
75008;BME280;63554;48.940;12.050;2023-02-18T12:23:52;97726.31;;;12.44;65.20
75008;BME280;63554;48.940;12.050;2023-02-18T12:28:16;97704.28;;;12.52;64.92
75008;BME280;63554;48.940;12.050;2023-02-18T12:32:40;97701.59;;;12.52;64.21
75008;BME280;63554;48.940;12.050;2023-02-18T12:36:54;97699.34;;;12.49;61.38
75008;BME280;63554;48.940;12.050;2023-02-18T12:41:19;97713.28;;;12.53;58.93
75008;BME280;63554;48.940;12.050;2023-02-18T12:45:43;97697.00;;;12.53;59.25
75008;BME280;63554;48.940;12.050;2023-02-18T12:50:02;97712.91;;;12.49;58.92
75008;BME280;63554;48.940;12.050;2023-02-18T12:54:32;97704.38;;;12.45;58.96
75008;BME280;63554;48.940;12.050;2023-02-18T12:58:49;97699.97;;;12.44;59.10
75008;BME280;63554;48.940;12.050;2023-02-18T13:03:26;97692.53;;;12.40;59.40
75008;BME280;63554;48.940;12.050;2023-02-18T13:07:43;97674.41;;;12.34;59.64
75008;BME280;63554;48.940;12.050;2023-02-18T13:11:54;97667.56;;;12.31;59.99
75008;BME280;63554;48.940;12.050;2023-02-18T13:16:03;97672.75;;;12.33;59.67
75008;BME280;63554;48.940;12.050;2023-02-18T13:20:13;97674.59;;;12.39;59.29
75008;BME280;63554;48.940;12.050;2023-02-18T13:24:26;97672.78;;;12.51;58.67
75008;BME280;63554;48.940;12.050;2023-02-18T13:28:36;97654.53;;;12.58;58.81
75008;BME280;63554;48.940;12.050;2023-02-18T13:32:50;97660.22;;;12.57;58.96
75008;BME280;63554;48.940;12.050;2023-02-18T13:37:05;97659.97;;;12.58;58.70
75008;BME280;63554;48.940;12.050;2023-02-18T13:41:08;97636.28;;;12.65;59.27
75008;BME280;63554;48.940;12.050;2023-02-18T13:45:30;97648.88;;;12.60;58.68
75008;BME280;63554;48.940;12.050;2023-02-18T13:49:37;97654.78;;;12.57;59.48
75008;BME280;63554;48.940;12.050;2023-02-18T13:53:42;97653.25;;;12.61;59.54
75008;BME280;63554;48.940;12.050;2023-02-18T13:57:47;97650.56;;;12.61;59.07
75008;BME280;63554;48.940;12.050;2023-02-18T14:01:51;97636.97;;;12.61;59.00
75008;BME280;63554;48.940;12.050;2023-02-18T14:05:56;97643.44;;;12.60;58.77
75008;BME280;63554;48.940;12.050;2023-02-18T14:10:00;97642.84;;;12.58;59.07
75008;BME280;63554;48.940;12.050;2023-02-18T14:18:56;97630.09;;;12.58;59.52
75008;BME280;63554;48.940;12.050;2023-02-18T14:23:00;97636.75;;;12.62;58.95
75008;BME280;63554;48.940;12.050;2023-02-18T14:27:15;97615.94;;;12.75;58.75
75008;BME280;63554;48.940;12.050;2023-02-18T14:31:33;97622.03;;;12.89;57.88
75008;BME280;63554;48.940;12.050;2023-02-18T14:35:39;97618.34;;;12.83;58.21
75008;BME280;63554;48.940;12.050;2023-02-18T14:39:56;97615.53;;;12.71;58.84
75008;BME280;63554;48.940;12.050;2023-02-18T14:44:19;97627.84;;;12.74;58.70
75008;BME280;63554;48.940;12.050;2023-02-18T14:48:40;97622.50;;;12.67;58.30
75008;BME280;63554;48.940;12.050;2023-02-18T14:52:46;97618.78;;;12.61;58.62
75008;BME280;63554;48.940;12.050;2023-02-18T14:56:55;97620.91;;;12.59;58.42
75008;BME280;63554;48.940;12.050;2023-02-18T15:01:05;97606.72;;;12.57;58.20
75008;BME280;63554;48.940;12.050;2023-02-18T15:05:13;97621.94;;;12.58;57.56
75008;BME280;63554;48.940;12.050;2023-02-18T15:09:19;97605.06;;;12.56;58.16
75008;BME280;63554;48.940;12.050;2023-02-18T15:13:26;97616.00;;;12.50;58.61
75008;BME280;63554;48.940;12.050;2023-02-18T15:17:29;97616.44;;;12.46;58.67
75008;BME280;63554;48.940;12.050;2023-02-18T15:21:36;97626.34;;;12.41;58.84
75008;BME280;63554;48.940;12.050;2023-02-18T15:25:41;97605.06;;;12.38;59.23
75008;BME280;63554;48.940;12.050;2023-02-18T15:29:48;97607.56;;;12.39;58.35
75008;BME280;63554;48.940;12.050;2023-02-18T15:33:51;97602.56;;;12.36;58.62
75008;BME280;63554;48.940;12.050;2023-02-18T15:37:55;97622.25;;;12.32;59.19
75008;BME280;63554;48.940;12.050;2023-02-18T15:42:00;97628.09;;;12.29;59.01
75008;BME280;63554;48.940;12.050;2023-02-18T15:46:12;97605.56;;;12.28;58.75
75008;BME280;63554;48.940;12.050;2023-02-18T15:50:17;97607.91;;;12.24;59.34
75008;BME280;63554;48.940;12.050;2023-02-18T15:54:22;97615.06;;;12.19;59.70
75008;BME280;63554;48.940;12.050;2023-02-18T15:58:28;97607.59;;;12.14;60.15
75008;BME280;63554;48.940;12.050;2023-02-18T16:02:33;97620.16;;;12.09;60.37
75008;BME280;63554;48.940;12.050;2023-02-18T16:06:37;97628.09;;;12.10;60.25
75008;BME280;63554;48.940;12.050;2023-02-18T16:10:48;97621.06;;;12.02;60.65
75008;BME280;63554;48.940;12.050;2023-02-18T16:14:53;97640.47;;;11.99;60.73
75008;BME280;63554;48.940;12.050;2023-02-18T16:18:59;97647.84;;;11.92;61.19
75008;BME280;63554;48.940;12.050;2023-02-18T16:23:07;97659.31;;;11.94;60.88
75008;BME280;63554;48.940;12.050;2023-02-18T16:27:15;97646.19;;;11.91;61.08
75008;BME280;63554;48.940;12.050;2023-02-18T16:31:17;97664.75;;;11.94;61.26
75008;BME280;63554;48.940;12.050;2023-02-18T16:35:25;97653.72;;;11.89;61.43
75008;BME280;63554;48.940;12.050;2023-02-18T16:39:33;97665.78;;;11.93;61.26
75008;BME280;63554;48.940;12.050;2023-02-18T16:43:36;97667.25;;;11.96;61.11
75008;BME280;63554;48.940;12.050;2023-02-18T16:47:39;97689.78;;;11.90;61.32
75008;BME280;63554;48.940;12.050;2023-02-18T16:51:44;97691.50;;;11.84;62.46
75008;BME280;63554;48.940;12.050;2023-02-18T16:55:48;97699.44;;;11.79;62.66
75008;BME280;63554;48.940;12.050;2023-02-18T16:59:51;97706.78;;;11.72;63.98
75008;BME280;63554;48.940;12.050;2023-02-18T17:03:55;97722.94;;;11.53;65.96
75008;BME280;63554;48.940;12.050;2023-02-18T17:08:13;97723.72;;;11.15;69.36
75008;BME280;63554;48.940;12.050;2023-02-18T17:12:16;97729.66;;;10.85;71.05
75008;BME280;63554;48.940;12.050;2023-02-18T17:16:19;97739.91;;;10.63;73.81
75008;BME280;63554;48.940;12.050;2023-02-18T17:20:23;97747.66;;;10.40;75.07
75008;BME280;63554;48.940;12.050;2023-02-18T17:24:28;97743.44;;;10.24;75.61
75008;BME280;63554;48.940;12.050;2023-02-18T17:28:30;97747.41;;;10.28;75.31
75008;BME280;63554;48.940;12.050;2023-02-18T17:32:33;97750.94;;;10.22;76.57
75008;BME280;63554;48.940;12.050;2023-02-18T17:36:36;97758.00;;;10.23;74.80
75008;BME280;63554;48.940;12.050;2023-02-18T17:40:41;97772.81;;;10.40;72.57
75008;BME280;63554;48.940;12.050;2023-02-18T17:44:44;97772.63;;;10.55;72.74
75008;BME280;63554;48.940;12.050;2023-02-18T17:48:47;97778.03;;;10.55;73.17
75008;BME280;63554;48.940;12.050;2023-02-18T17:52:50;97779.28;;;10.46;73.68
75008;BME280;63554;48.940;12.050;2023-02-18T17:56:54;97780.94;;;10.40;74.18
75008;BME280;63554;48.940;12.050;2023-02-18T18:00:57;97785.28;;;10.35;74.47
75008;BME280;63554;48.940;12.050;2023-02-18T18:04:59;97780.25;;;10.25;75.47
75008;BME280;63554;48.940;12.050;2023-02-18T18:09:02;97788.00;;;10.21;75.98
75008;BME280;63554;48.940;12.050;2023-02-18T18:13:08;97798.56;;;10.23;76.62
75008;BME280;63554;48.940;12.050;2023-02-18T18:17:14;97792.13;;;10.10;77.31
75008;BME280;63554;48.940;12.050;2023-02-18T18:21:20;97792.13;;;10.04;77.37
75008;BME280;63554;48.940;12.050;2023-02-18T18:25:25;97793.34;;;10.01;77.28
75008;BME280;63554;48.940;12.050;2023-02-18T18:29:30;97793.78;;;9.98;77.96
75008;BME280;63554;48.940;12.050;2023-02-18T18:33:33;97791.25;;;9.90;78.50
75008;BME280;63554;48.940;12.050;2023-02-18T18:37:36;97810.38;;;9.95;77.67
75008;BME280;63554;48.940;12.050;2023-02-18T18:41:39;97786.47;;;9.92;78.15
75008;BME280;63554;48.940;12.050;2023-02-18T18:45:43;97800.59;;;9.87;78.40
75008;BME280;63554;48.940;12.050;2023-02-18T18:49:46;97796.00;;;9.81;78.78
75008;BME280;63554;48.940;12.050;2023-02-18T18:53:48;97798.91;;;9.73;79.88
75008;BME280;63554;48.940;12.050;2023-02-18T18:57:52;97809.03;;;9.58;81.87
75008;BME280;63554;48.940;12.050;2023-02-18T19:01:56;97812.72;;;9.50;82.67
75008;BME280;63554;48.940;12.050;2023-02-18T19:05:59;97812.53;;;9.45;82.76
75008;BME280;63554;48.940;12.050;2023-02-18T19:10:02;97810.59;;;9.39;82.79
75008;BME280;63554;48.940;12.050;2023-02-18T19:14:04;97819.56;;;9.39;82.51
75008;BME280;63554;48.940;12.050;2023-02-18T19:18:11;97821.41;;;9.39;82.54
75008;BME280;63554;48.940;12.050;2023-02-18T19:22:14;97813.72;;;9.36;82.25
75008;BME280;63554;48.940;12.050;2023-02-18T19:26:17;97822.22;;;9.33;82.45
75008;BME280;63554;48.940;12.050;2023-02-18T19:30:23;97832.81;;;9.34;82.80
75008;BME280;63554;48.940;12.050;2023-02-18T19:34:27;97821.13;;;9.27;83.21
75008;BME280;63554;48.940;12.050;2023-02-18T19:38:29;97830.28;;;9.26;82.50
75008;BME280;63554;48.940;12.050;2023-02-18T19:42:32;97813.66;;;9.22;82.45
75008;BME280;63554;48.940;12.050;2023-02-18T19:46:35;97812.19;;;9.20;82.23
75008;BME280;63554;48.940;12.050;2023-02-18T19:50:40;97810.31;;;9.20;81.77
75008;BME280;63554;48.940;12.050;2023-02-18T19:54:43;97795.75;;;9.15;82.03
75008;BME280;63554;48.940;12.050;2023-02-18T19:58:46;97806.50;;;9.08;82.07
75008;BME280;63554;48.940;12.050;2023-02-18T20:02:49;97813.97;;;9.06;81.41
75008;BME280;63554;48.940;12.050;2023-02-18T20:06:53;97823.09;;;9.05;81.37
75008;BME280;63554;48.940;12.050;2023-02-18T20:10:56;97808.97;;;9.03;80.93
75008;BME280;63554;48.940;12.050;2023-02-18T20:14:59;97832.88;;;9.06;80.40
75008;BME280;63554;48.940;12.050;2023-02-18T20:19:03;97838.28;;;9.06;80.03
75008;BME280;63554;48.940;12.050;2023-02-18T20:23:07;97841.16;;;9.04;80.10
75008;BME280;63554;48.940;12.050;2023-02-18T20:27:10;97831.81;;;9.00;80.09
75008;BME280;63554;48.940;12.050;2023-02-18T20:31:13;97838.22;;;8.99;80.03
75008;BME280;63554;48.940;12.050;2023-02-18T20:35:16;97836.56;;;8.98;80.31
75008;BME280;63554;48.940;12.050;2023-02-18T20:39:21;97839.47;;;8.97;80.56
75008;BME280;63554;48.940;12.050;2023-02-18T20:43:24;97832.97;;;8.91;80.90
75008;BME280;63554;48.940;12.050;2023-02-18T20:47:26;97838.56;;;8.89;81.24
75008;BME280;63554;48.940;12.050;2023-02-18T20:51:29;97839.34;;;8.83;81.46
75008;BME280;63554;48.940;12.050;2023-02-18T20:55:33;97841.22;;;8.83;81.42
75008;BME280;63554;48.940;12.050;2023-02-18T20:59:36;97840.59;;;8.81;81.74
75008;BME280;63554;48.940;12.050;2023-02-18T21:03:39;97833.72;;;8.78;81.11
75008;BME280;63554;48.940;12.050;2023-02-18T21:07:42;97833.97;;;8.83;81.07
75008;BME280;63554;48.940;12.050;2023-02-18T21:11:47;97830.63;;;8.81;80.77
75008;BME280;63554;48.940;12.050;2023-02-18T21:15:50;97832.69;;;8.79;80.49
75008;BME280;63554;48.940;12.050;2023-02-18T21:19:53;97840.41;;;8.82;80.81
75008;BME280;63554;48.940;12.050;2023-02-18T21:23:56;97840.59;;;8.81;80.63
75008;BME280;63554;48.940;12.050;2023-02-18T21:28:00;97842.03;;;8.77;80.63
75008;BME280;63554;48.940;12.050;2023-02-18T21:32:03;97842.66;;;8.79;80.40
75008;BME280;63554;48.940;12.050;2023-02-18T21:36:07;97839.34;;;8.83;80.41
75008;BME280;63554;48.940;12.050;2023-02-18T21:40:09;97838.72;;;8.81;80.07
75008;BME280;63554;48.940;12.050;2023-02-18T21:44:14;97831.88;;;8.79;80.10
75008;BME280;63554;48.940;12.050;2023-02-18T21:48:16;97841.84;;;8.78;79.92